Time;durP1;ratioP1;P1;durP2;ratioP2;P2;SDS_P1;SDS_P2;PMS_P1;PMS_P2;Temp;Humidity;BMP_temperature;BMP_pressure;BME280_temperature;BME280_humidity;BME280_pressure;Samples;Min_cycle;Max_cycle;Signal;HPM_P1;HPM_P2
2022/03/27 00:01:28;;;;;;;1999.90;999.90;;;14.30;39.70;;;;;;4972916;28;20035;-87
2022/03/27 00:03:54;;;;;;;1999.90;999.90;;;14.20;39.70;;;;;;4985613;28;20039;-87
2022/03/27 00:06:20;;;;;;;1999.90;999.90;;;14.20;39.80;;;;;;4954991;28;20062;-87
2022/03/27 00:08:47;;;;;;;1999.90;999.90;;;14.10;39.80;;;;;;4956042;28;20079;-87
2022/03/27 00:11:25;;;;;;;1999.90;999.90;;;14.10;39.90;;;;;;4972760;28;20042;-88
2022/03/27 00:13:52;;;;;;;1999.90;999.90;;;14.10;40.00;;;;;;4971906;28;20034;-90
2022/03/27 00:16:18;;;;;;;1999.90;999.90;;;14.00;40.10;;;;;;4972369;28;20514;-89
2022/03/27 00:18:44;;;;;;;1999.90;999.90;;;13.90;40.10;;;;;;4973691;28;20042;-90
2022/03/27 00:21:10;;;;;;;1999.90;999.90;;;13.90;40.20;;;;;;4971402;28;20023;-89
2022/03/27 00:23:36;;;;;;;1999.90;999.90;;;13.90;40.20;;;;;;4951601;28;20039;-90
2022/03/27 00:26:03;;;;;;;1999.90;999.90;;;13.80;40.20;;;;;;4955811;28;20058;-89
2022/03/27 00:28:32;;;;;;;1999.90;999.90;;;13.90;40.30;;;;;;4956748;28;20042;-89
2022/03/27 00:31:00;;;;;;;1999.90;999.90;;;13.80;40.30;;;;;;4972595;28;20419;-89
2022/03/27 00:33:29;;;;;;;1999.90;999.90;;;13.80;40.40;;;;;;4952725;28;20070;-89
2022/03/27 00:35:55;;;;;;;1999.90;999.90;;;13.80;40.50;;;;;;4969789;28;20031;-89
2022/03/27 00:38:22;;;;;;;1999.90;999.90;;;13.70;40.50;;;;;;4955510;28;20104;-89
2022/03/27 00:40:50;;;;;;;1999.90;999.90;;;13.70;40.50;;;;;;4955710;28;20027;-90
2022/03/27 00:43:17;;;;;;;1999.90;999.90;;;13.60;40.50;;;;;;4972433;28;20030;-91
2022/03/27 00:45:43;;;;;;;1999.90;999.90;;;13.60;40.60;;;;;;4956625;28;20407;-89
2022/03/27 00:48:10;;;;;;;1999.90;999.90;;;13.60;40.70;;;;;;4956036;28;20031;-89
2022/03/27 00:50:37;;;;;;;1999.90;999.90;;;13.60;40.80;;;;;;4956309;28;20039;-90
2022/03/27 00:53:03;;;;;;;1999.90;999.90;;;13.50;40.80;;;;;;4970521;28;20050;-90
2022/03/27 00:55:29;;;;;;;1999.90;999.90;;;13.50;40.80;;;;;;4970829;28;20483;-89
2022/03/27 00:57:55;;;;;;;1999.90;999.90;;;13.50;40.90;;;;;;4972885;28;20081;-90
2022/03/27 01:00:43;;;;;;;1999.90;999.90;;;13.40;40.90;;;;;;4971259;28;20030;-90
2022/03/27 01:03:14;;;;;;;1999.90;999.90;;;13.40;41.00;;;;;;4969248;28;20047;-89
2022/03/27 01:05:41;;;;;;;1999.90;999.90;;;13.40;41.10;;;;;;4970984;28;20472;-89
2022/03/27 01:08:09;;;;;;;1999.90;999.90;;;13.40;41.10;;;;;;4970826;28;20030;-90
2022/03/27 01:10:35;;;;;;;1999.90;999.90;;;13.30;41.10;;;;;;4969954;28;20031;-89
2022/03/27 01:13:08;;;;;;;1999.90;999.90;;;13.30;41.20;;;;;;4971669;28;20083;-90
2022/03/27 01:15:46;;;;;;;1999.90;999.90;;;13.30;41.20;;;;;;4972796;28;20023;-89
2022/03/27 01:18:13;;;;;;;1999.90;999.90;;;13.30;41.30;;;;;;4970406;28;20190;-89
2022/03/27 01:20:40;;;;;;;1999.90;999.90;;;13.20;41.30;;;;;;4937669;28;20057;-89
2022/03/27 01:23:10;;;;;;;1999.90;999.90;;;13.20;41.40;;;;;;4970055;28;20035;-89
2022/03/27 01:25:37;;;;;;;1999.90;999.90;;;13.10;41.50;;;;;;4971552;28;20035;-89
2022/03/27 01:28:03;;;;;;;1999.90;999.90;;;13.10;41.50;;;;;;4955623;28;20038;-89
2022/03/27 01:30:29;;;;;;;1999.90;999.90;;;13.10;41.50;;;;;;4952129;28;20045;-90
2022/03/27 01:32:56;;;;;;;1999.90;999.90;;;13.10;41.50;;;;;;4954728;28;20033;-90
2022/03/27 01:35:22;;;;;;;1999.90;999.90;;;13.00;41.50;;;;;;4970520;28;20027;-89
2022/03/27 01:37:48;;;;;;;1999.90;999.90;;;13.00;41.60;;;;;;4953967;28;20396;-90
2022/03/27 01:40:15;;;;;;;1999.90;999.90;;;13.00;41.60;;;;;;4954668;28;20030;-89
2022/03/27 01:42:41;;;;;;;1999.90;999.90;;;13.00;41.70;;;;;;4986910;28;20491;-89
2022/03/27 01:45:07;;;;;;;1999.90;999.90;;;12.90;41.70;;;;;;4968180;28;20411;-89
2022/03/27 01:47:34;;;;;;;1999.90;999.90;;;12.90;41.70;;;;;;4970816;28;20038;-89
2022/03/27 01:50:04;;;;;;;1999.90;999.90;;;12.90;41.80;;;;;;4969771;28;20049;-89
2022/03/27 01:52:30;;;;;;;1999.90;999.90;;;12.90;41.80;;;;;;4953455;28;20043;-89
2022/03/27 01:54:57;;;;;;;1999.90;999.90;;;12.90;41.80;;;;;;4955873;28;20407;-89
2022/03/27 01:57:23;;;;;;;1999.90;999.90;;;12.90;41.80;;;;;;4969684;28;20026;-89
2022/03/27 01:59:49;;;;;;;1999.90;999.90;;;12.90;41.90;;;;;;4968984;28;20487;-89
2022/03/27 02:02:17;;;;;;;1999.90;999.90;;;12.80;41.90;;;;;;4967028;28;20391;-89
2022/03/27 02:04:43;;;;;;;1999.90;999.90;;;12.80;42.00;;;;;;4970297;28;20038;-89
2022/03/27 02:07:09;;;;;;;1999.90;999.90;;;12.80;42.00;;;;;;4952299;28;20054;-89
2022/03/27 02:09:35;;;;;;;1999.90;999.90;;;12.80;42.10;;;;;;4954651;28;20377;-89
2022/03/27 02:12:02;;;;;;;1999.90;999.90;;;12.80;42.10;;;;;;4967902;28;20047;-89
2022/03/27 02:14:28;;;;;;;1999.90;999.90;;;12.80;42.20;;;;;;4954342;28;20042;-89
2022/03/27 02:16:54;;;;;;;1999.90;999.90;;;12.70;42.10;;;;;;4970438;28;20050;-89
2022/03/27 02:19:20;;;;;;;1999.90;999.90;;;12.80;42.30;;;;;;4969834;28;20424;-89
2022/03/27 02:21:46;;;;;;;1999.90;999.90;;;12.70;42.30;;;;;;4985842;28;20039;-88
2022/03/27 02:24:12;;;;;;;1999.90;999.90;;;12.60;42.30;;;;;;4970651;28;20035;-89
2022/03/27 02:26:45;;;;;;;1999.90;999.90;;;12.60;42.40;;;;;;4954386;28;20526;-89
2022/03/27 02:29:13;;;;;;;1999.90;999.90;;;12.60;42.50;;;;;;4956717;28;20400;-89
2022/03/27 02:31:39;;;;;;;1999.90;999.90;;;12.60;42.50;;;;;;4954057;28;20042;-88
2022/03/27 02:34:05;;;;;;;1999.90;999.90;;;12.50;42.50;;;;;;4952846;28;20039;-89
2022/03/27 02:36:31;;;;;;;1999.90;999.90;;;12.50;42.60;;;;;;4984656;28;20416;-89
2022/03/27 02:38:57;;;;;;;1999.90;999.90;;;12.40;42.60;;;;;;4967567;28;20050;-89
2022/03/27 02:41:23;;;;;;;1999.90;999.90;;;12.40;42.70;;;;;;4968937;28;20050;-89
2022/03/27 02:43:50;;;;;;;1999.90;999.90;;;12.40;42.80;;;;;;4970018;28;20389;-89
2022/03/27 02:46:16;;;;;;;1999.90;999.90;;;12.40;42.80;;;;;;4969455;28;20046;-88
2022/03/27 02:48:42;;;;;;;1999.90;999.90;;;12.30;42.70;;;;;;4955476;28;20061;-90
2022/03/27 02:51:08;;;;;;;1999.90;999.90;;;12.30;42.80;;;;;;4969265;28;20049;-88
2022/03/27 02:53:34;;;;;;;1999.90;999.90;;;12.20;42.80;;;;;;4954274;28;20051;-89
2022/03/27 02:56:03;;;;;;;1999.90;999.90;;;12.20;42.90;;;;;;4969263;28;20042;-89
2022/03/27 02:58:29;;;;;;;1999.90;999.90;;;12.20;42.90;;;;;;4967293;28;20591;-88
2022/03/27 03:00:55;;;;;;;1999.90;999.90;;;12.20;42.90;;;;;;4971458;28;20039;-88
2022/03/27 03:03:22;;;;;;;1999.90;999.90;;;12.20;42.90;;;;;;4965990;28;20487;-88
2022/03/27 03:05:48;;;;;;;1999.90;999.90;;;12.10;42.90;;;;;;4969541;28;20047;-88
2022/03/27 03:08:18;;;;;;;1999.90;999.90;;;12.10;43.00;;;;;;4930191;28;20072;-89
2022/03/27 03:10:44;;;;;;;1999.90;999.90;;;12.10;43.00;;;;;;4966809;28;20481;-89
2022/03/27 03:13:10;;;;;;;1999.90;999.90;;;12.10;43.00;;;;;;4950566;28;20427;-89
2022/03/27 03:15:37;;;;;;;1999.90;999.90;;;12.10;43.10;;;;;;4957914;28;20392;-89
2022/03/27 03:18:04;;;;;;;1999.90;999.90;;;12.00;43.10;;;;;;4949503;28;20050;-89
2022/03/27 03:20:31;;;;;;;1999.90;999.90;;;12.00;43.10;;;;;;4962184;28;20026;-89
2022/03/27 03:22:57;;;;;;;1999.90;999.90;;;12.00;43.20;;;;;;4962043;28;20055;-90
2022/03/27 03:25:24;;;;;;;1999.90;999.90;;;12.00;43.20;;;;;;4966914;28;20461;-90
2022/03/27 03:27:50;;;;;;;1999.90;999.90;;;12.00;43.20;;;;;;4961064;28;20034;-89
2022/03/27 03:30:19;;;;;;;1999.90;999.90;;;12.00;43.30;;;;;;4949020;28;20045;-89
2022/03/27 03:32:45;;;;;;;1999.90;999.90;;;12.00;43.40;;;;;;4964057;28;20365;-89
2022/03/27 03:35:11;;;;;;;1999.90;999.90;;;11.90;43.40;;;;;;4945240;28;20055;-89
2022/03/27 03:37:37;;;;;;;1999.90;999.90;;;11.90;43.40;;;;;;4970859;28;20027;-89
2022/03/27 03:40:06;;;;;;;1999.90;999.90;;;11.90;43.40;;;;;;4957255;28;20070;-89
2022/03/27 03:42:35;;;;;;;1999.90;999.90;;;11.80;43.50;;;;;;4962370;28;20023;-89
2022/03/27 03:45:05;;;;;;;1999.90;999.90;;;11.80;43.50;;;;;;4962488;28;20046;-88
2022/03/27 03:47:31;;;;;;;1999.90;999.90;;;11.80;43.50;;;;;;4962129;28;20042;-87
2022/03/27 03:49:57;;;;;;;1999.90;999.90;;;11.80;43.60;;;;;;4955215;28;20054;-85
2022/03/27 03:52:23;;;;;;;1999.90;999.90;;;11.80;43.70;;;;;;4970622;28;20051;-86
2022/03/27 03:54:49;;;;;;;1999.90;999.90;;;11.70;43.60;;;;;;4953680;28;20044;-86
2022/03/27 03:57:15;;;;;;;1999.90;999.90;;;11.70;43.70;;;;;;4953282;28;20039;-86
2022/03/27 03:59:41;;;;;;;1999.90;999.90;;;11.70;43.70;;;;;;4965426;28;20041;-90
2022/03/27 04:02:08;;;;;;;1999.90;999.90;;;11.70;43.80;;;;;;4964178;28;20043;-89
2022/03/27 04:04:34;;;;;;;1999.90;999.90;;;11.60;43.80;;;;;;4955386;28;20054;-89
2022/03/27 04:07:01;;;;;;;1999.90;999.90;;;11.60;43.80;;;;;;4970370;28;20062;-90
2022/03/27 04:09:28;;;;;;;1999.90;999.90;;;11.60;44.50;;;;;;4958155;28;20051;-93
2022/03/27 04:11:54;;;;;;;1999.90;999.90;;;11.50;43.90;;;;;;4973576;28;20034;-91
2022/03/27 04:14:20;;;;;;;1999.90;999.90;;;11.50;44.00;;;;;;4959188;28;20050;-90
2022/03/27 04:16:48;;;;;;;1999.90;999.90;;;11.50;44.00;;;;;;4971237;28;20031;-90
2022/03/27 04:19:14;;;;;;;1999.90;999.90;;;11.40;44.00;;;;;;4972522;28;20092;-90
2022/03/27 04:21:40;;;;;;;1999.90;999.90;;;11.40;44.10;;;;;;4958630;28;20046;-90
2022/03/27 04:24:07;;;;;;;1999.90;999.90;;;11.30;44.10;;;;;;4954001;28;20408;-91
2022/03/27 04:26:33;;;;;;;1999.90;999.90;;;11.30;44.10;;;;;;4974516;28;20047;-94
2022/03/27 04:29:00;;;;;;;1999.90;999.90;;;11.30;44.20;;;;;;4964337;28;20043;-94
2022/03/27 04:31:26;;;;;;;1999.90;999.90;;;11.30;44.90;;;;;;4978586;28;20510;-91
2022/03/27 04:33:52;;;;;;;1999.90;999.90;;;11.30;44.30;;;;;;4975427;28;20038;-93
2022/03/27 04:36:18;;;;;;;1999.90;999.90;;;11.30;44.30;;;;;;4972036;28;20031;-93
2022/03/27 04:38:44;;;;;;;1999.90;999.90;;;11.20;44.30;;;;;;4973809;28;20031;-93
2022/03/27 04:41:10;;;;;;;1999.90;999.90;;;11.20;44.40;;;;;;4960621;28;20063;-93
2022/03/27 04:43:36;;;;;;;1999.90;999.90;;;11.30;44.50;;;;;;4975602;28;20397;-92
2022/03/27 04:46:02;;;;;;;1999.90;999.90;;;11.30;44.50;;;;;;4959756;28;20046;-93
2022/03/27 04:48:29;;;;;;;1999.90;999.90;;;11.20;44.40;;;;;;4974817;28;20069;-92
2022/03/27 04:50:55;;;;;;;1999.90;999.90;;;11.20;44.50;;;;;;4974136;28;20035;-92
2022/03/27 04:53:21;;;;;;;1999.90;999.90;;;11.20;44.50;;;;;;4972066;28;20039;-93
2022/03/27 04:55:47;;;;;;;1999.90;999.90;;;11.20;44.50;;;;;;4975218;28;20393;-91
2022/03/27 04:58:13;;;;;;;1999.90;999.90;;;11.20;44.50;;;;;;4978967;28;20047;-92
2022/03/27 05:00:39;;;;;;;1999.90;999.90;;;11.20;44.60;;;;;;4978398;28;20043;-95
2022/03/27 05:03:06;;;;;;;1999.90;999.90;;;11.10;44.60;;;;;;4975720;28;20031;-93
2022/03/27 05:05:32;;;;;;;1999.90;999.90;;;11.20;44.70;;;;;;4971786;28;20489;-92
2022/03/27 05:07:58;;;;;;;1999.90;999.90;;;11.10;44.70;;;;;;4974068;28;20035;-93
2022/03/27 05:10:24;;;;;;;1999.90;999.90;;;11.00;44.80;;;;;;4976076;28;20042;-92
2022/03/27 05:12:51;;;;;;;1999.90;999.90;;;11.00;44.90;;;;;;4965123;28;20030;-93
2022/03/27 05:15:17;;;;;;;1999.90;999.90;;;10.90;45.00;;;;;;4969360;28;20054;-95
2022/03/27 05:17:51;;;;;;;1999.90;999.90;;;10.80;45.00;;;;;;4956084;28;20165;-92
2022/03/27 05:20:17;;;;;;;1999.90;999.90;;;10.80;45.10;;;;;;4967549;28;20495;-92
2022/03/27 05:22:44;;;;;;;1999.90;999.90;;;10.70;45.10;;;;;;4944761;28;20535;-92
2022/03/27 05:25:11;;;;;;;1999.90;999.90;;;10.70;45.80;;;;;;4973577;28;20058;-94
2022/03/27 05:27:54;;;;;;;1999.90;999.90;;;10.70;45.30;;;;;;4971441;28;20069;-94
2022/03/27 05:30:22;;;;;;;1999.90;999.90;;;10.70;45.30;;;;;;4951397;28;20487;-90
2022/03/27 05:32:48;;;;;;;1999.90;999.90;;;10.60;45.20;;;;;;4951260;29;20035;-92
2022/03/27 05:35:15;;;;;;;1999.90;999.90;;;10.60;45.30;;;;;;4958521;28;20039;-92
2022/03/27 05:37:42;;;;;;;1999.90;999.90;;;10.50;45.30;;;;;;4939425;28;20031;-92
2022/03/27 05:40:10;;;;;;;1999.90;999.90;;;10.50;45.40;;;;;;4952737;28;20046;-91
2022/03/27 05:42:36;;;;;;;1999.90;999.90;;;10.50;45.40;;;;;;4952624;28;20399;-92
2022/03/27 05:45:04;;;;;;;1999.90;999.90;;;10.50;45.40;;;;;;4953576;28;20054;-91
2022/03/27 05:47:30;;;;;;;1999.90;999.90;;;10.50;45.40;;;;;;4950715;28;20408;-92
2022/03/27 05:49:56;;;;;;;1999.90;999.90;;;10.50;45.50;;;;;;4951185;29;20400;-92
2022/03/27 05:52:23;;;;;;;1999.90;999.90;;;10.50;46.10;;;;;;4951959;28;20050;-92
2022/03/27 05:54:49;;;;;;;1999.90;999.90;;;10.50;45.50;;;;;;4953629;28;20035;-91
2022/03/27 05:57:18;;;;;;;1999.90;999.90;;;10.50;45.50;;;;;;4952857;28;20046;-91
2022/03/27 05:59:45;;;;;;;1999.90;999.90;;;10.50;45.50;;;;;;4967637;28;20033;-92
2022/03/27 06:02:12;;;;;;;1999.90;999.90;;;10.50;45.60;;;;;;4966922;28;20035;-91
2022/03/27 06:04:38;;;;;;;1999.90;999.90;;;10.50;45.60;;;;;;4967533;28;20035;-92
2022/03/27 06:07:05;;;;;;;1999.90;999.90;;;10.50;45.60;;;;;;4953727;28;20419;-89
2022/03/27 06:09:32;;;;;;;1999.90;999.90;;;10.50;45.70;;;;;;4967640;28;20026;-87
2022/03/27 06:11:59;;;;;;;1999.90;999.90;;;10.40;45.70;;;;;;4967128;28;20030;-86
2022/03/27 06:14:25;;;;;;;1999.90;999.90;;;10.40;45.80;;;;;;4968500;28;20030;-86
2022/03/27 06:16:51;;;;;;;1999.90;999.90;;;10.40;45.80;;;;;;4966909;28;20030;-88
2022/03/27 06:19:17;;;;;;;1999.90;999.90;;;10.40;45.80;;;;;;4953324;28;20039;-86
2022/03/27 06:21:44;;;;;;;1999.90;999.90;;;10.40;45.90;;;;;;4969204;28;20046;-86
2022/03/27 06:24:12;;;;;;;1999.90;999.90;;;10.30;45.90;;;;;;4962641;28;20027;-86
2022/03/27 06:26:39;;;;;;;1999.90;999.90;;;10.30;46.70;;;;;;4949115;28;20500;-87
2022/03/27 06:29:05;;;;;;;1999.90;999.90;;;10.30;46.10;;;;;;4967142;28;20395;-86
2022/03/27 06:31:31;;;;;;;1999.90;999.90;;;10.30;46.10;;;;;;4967517;28;20042;-86
2022/03/27 06:33:57;;;;;;;1999.90;999.90;;;10.30;46.10;;;;;;4970615;28;20038;-89
2022/03/27 06:36:24;;;;;;;1999.90;999.90;;;10.30;46.00;;;;;;4956167;28;20043;-88
2022/03/27 06:38:50;;;;;;;1999.90;999.90;;;10.40;46.00;;;;;;4959660;28;20045;-88
2022/03/27 06:41:16;;;;;;;1999.90;999.90;;;10.60;45.80;;;;;;4953287;28;20049;-87
2022/03/27 06:43:42;;;;;;;1999.90;999.90;;;10.80;45.60;;;;;;4967443;28;20027;-87
2022/03/27 06:46:13;;;;;;;1999.90;999.90;;;11.10;45.30;;;;;;4953147;28;20047;-84
2022/03/27 06:48:39;;;;;;;1999.90;999.90;;;11.40;45.00;;;;;;4969418;28;20035;-87
2022/03/27 06:51:05;;;;;;;1999.90;999.90;;;11.70;44.70;;;;;;4959076;28;20039;-86
2022/03/27 06:53:31;;;;;;;1999.90;999.90;;;12.00;44.40;;;;;;4958707;28;20035;-87
2022/03/27 06:55:57;;;;;;;1999.90;999.90;;;12.20;44.20;;;;;;4962897;28;20469;-87
2022/03/27 06:58:24;;;;;;;1999.90;999.90;;;12.40;43.90;;;;;;4967697;28;20034;-88
2022/03/27 07:03:34;;;;;;;1999.90;999.90;;;12.90;43.60;;;;;;4976706;28;20031;-84
2022/03/27 07:06:01;;;;;;;1999.90;999.90;;;13.10;43.40;;;;;;4963666;28;20046;-84
2022/03/27 07:08:27;;;;;;;1999.90;999.90;;;13.40;43.40;;;;;;4957237;28;20053;-86
2022/03/27 07:13:01;;;;;;;1999.90;999.90;;;13.60;42.80;;;;;;5063585;28;20390;-85
2022/03/27 07:15:27;;;;;;;1999.90;999.90;;;13.70;43.10;;;;;;5044157;28;20033;-86
2022/03/27 07:17:53;;;;;;;1999.90;999.90;;;13.80;43.20;;;;;;5005876;28;20438;-88
2022/03/27 07:20:30;;;;;;;1999.90;999.90;;;13.80;43.40;;;;;;5015954;28;20037;-84
2022/03/27 07:22:57;;;;;;;1999.90;999.90;;;13.90;43.70;;;;;;4996809;28;20050;-89
2022/03/27 07:25:24;;;;;;;1999.90;999.90;;;14.00;43.70;;;;;;5016284;28;20418;-87
2022/03/27 07:27:51;;;;;;;1999.90;999.90;;;14.20;43.90;;;;;;5020412;28;20081;-87
2022/03/27 07:30:17;;;;;;;1999.90;999.90;;;14.30;44.20;;;;;;5008372;28;20026;-87
2022/03/27 07:32:44;;;;;;;1999.90;999.90;;;14.30;44.30;;;;;;5001268;28;20414;-86
2022/03/27 07:35:11;;;;;;;1999.90;999.90;;;14.40;44.60;;;;;;4998986;28;20034;-88
2022/03/27 07:37:38;;;;;;;1999.90;999.90;;;14.40;44.80;;;;;;5015554;28;20029;-85
2022/03/27 07:40:08;;;;;;;1999.90;999.90;;;14.60;45.00;;;;;;5017626;28;20406;-87
2022/03/27 07:42:38;;;;;;;1999.90;999.90;;;14.70;45.20;;;;;;5021757;28;20042;-85
2022/03/27 07:45:05;;;;;;;1999.90;999.90;;;14.80;45.20;;;;;;5014929;28;20034;-85
2022/03/27 07:47:31;;;;;;;1999.90;999.90;;;15.00;45.20;;;;;;5016121;28;20026;-86
2022/03/27 07:49:57;;;;;;;1999.90;999.90;;;15.10;45.10;;;;;;5000388;28;20037;-86
2022/03/27 07:52:24;;;;;;;1999.90;999.90;;;15.40;45.10;;;;;;4990360;28;20509;-86
2022/03/27 07:54:50;;;;;;;1999.90;999.90;;;15.50;44.90;;;;;;5010538;28;20046;-85
2022/03/27 07:57:16;;;;;;;1999.90;999.90;;;15.70;44.80;;;;;;5017143;28;20061;-86
2022/03/27 07:59:42;;;;;;;1999.90;999.90;;;15.90;44.60;;;;;;5012563;28;20026;-88
2022/03/27 08:02:08;;;;;;;1999.90;999.90;;;15.90;44.50;;;;;;5007270;28;20061;-88
2022/03/27 08:04:34;;;;;;;1999.90;999.90;;;15.90;44.40;;;;;;5005823;28;20034;-85
2022/03/27 08:07:01;;;;;;;1999.90;999.90;;;15.90;44.40;;;;;;5016425;28;20088;-79
2022/03/27 08:09:27;;;;;;;1999.90;999.90;;;16.10;44.30;;;;;;5015764;28;20393;-79
2022/03/27 08:11:55;;;;;;;1999.90;999.90;;;16.10;44.00;;;;;;5011701;28;20065;-76
2022/03/27 08:14:21;;;;;;;1999.90;999.90;;;16.00;43.80;;;;;;5007684;28;20048;-85
2022/03/27 08:16:47;;;;;;;1999.90;999.90;;;15.90;43.80;;;;;;5020916;28;20046;-84
2022/03/27 08:19:14;;;;;;;1999.90;999.90;;;15.80;43.70;;;;;;5016066;28;20026;-85
2022/03/27 08:21:40;;;;;;;1999.90;999.90;;;15.80;43.70;;;;;;5023967;28;20046;-84
2022/03/27 08:24:06;;;;;;;1999.90;999.90;;;15.70;43.50;;;;;;5003162;28;20050;-84
2022/03/27 08:29:17;;;;;;;1999.90;999.90;;;15.70;44.00;;;;;;5004157;28;20045;-85
2022/03/27 08:31:43;;;;;;;1999.90;999.90;;;15.80;43.20;;;;;;5008038;28;20515;-84
2022/03/27 08:34:09;;;;;;;1999.90;999.90;;;15.80;43.10;;;;;;5011658;28;20014;-84
2022/03/27 08:36:35;;;;;;;1999.90;999.90;;;15.80;43.10;;;;;;5012537;28;20026;-84
2022/03/27 08:39:01;;;;;;;1999.90;999.90;;;15.90;43.10;;;;;;5012397;28;20076;-83
2022/03/27 08:41:27;;;;;;;1999.90;999.90;;;16.00;42.80;;;;;;5011094;28;20030;-86
2022/03/27 08:43:58;;;;;;;1999.90;999.90;;;16.10;42.60;;;;;;5010901;28;20029;-85
2022/03/27 08:46:28;;;;;;;1999.90;999.90;;;16.10;42.60;;;;;;4997238;28;20038;-85
2022/03/27 08:48:59;;;;;;;1999.90;999.90;;;16.30;42.50;;;;;;5012703;28;20383;-85
2022/03/27 08:51:55;;;;;;;1999.90;999.90;;;16.60;42.20;;;;;;5003098;28;20051;-85
2022/03/27 08:54:23;;;;;;;1999.90;999.90;;;16.90;41.80;;;;;;5007271;28;20037;-88
2022/03/27 08:57:08;;;;;;;1999.90;999.90;;;17.20;41.60;;;;;;4991698;28;20037;-87
2022/03/27 08:59:36;;;;;;;1999.90;999.90;;;17.40;41.30;;;;;;5003986;28;20042;-88
2022/03/27 09:02:02;;;;;;;1999.90;999.90;;;17.50;41.10;;;;;;4996718;28;20444;-85
2022/03/27 09:04:28;;;;;;;1999.90;999.90;;;17.50;41.00;;;;;;4995141;28;20029;-85
2022/03/27 09:06:54;;;;;;;1999.90;999.90;;;17.60;41.00;;;;;;4997572;28;20037;-87
2022/03/27 09:09:20;;;;;;;1999.90;999.90;;;17.70;41.00;;;;;;4988374;28;20149;-87
2022/03/27 09:11:46;;;;;;;1999.90;999.90;;;17.80;40.90;;;;;;4982731;28;20395;-87
2022/03/27 09:14:14;;;;;;;1999.90;999.90;;;17.90;40.80;;;;;;5001271;28;20033;-86
2022/03/27 09:17:00;;;;;;;1999.90;999.90;;;18.10;40.70;;;;;;5004634;28;20030;-87
2022/03/27 09:19:39;;;;;;;1999.90;999.90;;;18.30;40.50;;;;;;4978542;28;20324;-87
2022/03/27 09:22:18;;;;;;;1999.90;999.90;;;18.40;40.30;;;;;;4980184;28;20053;-87
2022/03/27 09:24:47;;;;;;;1999.90;999.90;;;18.50;40.30;;;;;;4976076;28;20049;-83
2022/03/27 09:27:16;;;;;;;1999.90;999.90;;;18.50;40.30;;;;;;4997771;28;20037;-88
2022/03/27 09:30:06;;;;;;;1999.90;999.90;;;18.60;40.20;;;;;;4982015;28;20046;-86
2022/03/27 09:32:37;;;;;;;1999.90;999.90;;;18.80;40.10;;;;;;4981669;28;20054;-86
2022/03/27 09:35:10;;;;;;;1999.90;999.90;;;18.90;39.90;;;;;;5000250;28;20034;-83
2022/03/27 09:37:38;;;;;;;1999.90;999.90;;;19.10;39.80;;;;;;4994362;28;20041;-85
2022/03/27 09:40:06;;;;;;;1999.90;999.90;;;19.10;39.60;;;;;;4995175;28;20022;-84
2022/03/27 09:42:32;;;;;;;1999.90;999.90;;;19.20;39.50;;;;;;5006446;28;20034;-87
2022/03/27 09:45:15;;;;;;;1999.90;999.90;;;19.30;39.50;;;;;;5002564;28;20426;-87
2022/03/27 09:47:43;;;;;;;1999.90;999.90;;;19.40;39.30;;;;;;4990495;28;20045;-84
2022/03/27 09:50:10;;;;;;;1999.90;999.90;;;19.50;39.30;;;;;;5007806;28;20475;-90
2022/03/27 09:52:37;;;;;;;1999.90;999.90;;;19.50;39.20;;;;;;5005703;28;20061;-84
2022/03/27 09:55:07;;;;;;;1999.90;999.90;;;19.60;39.00;;;;;;4996428;28;20025;-88
2022/03/27 09:57:38;;;;;;;1999.90;999.90;;;19.60;38.90;;;;;;5007690;28;20037;-81
2022/03/27 10:00:15;;;;;;;1999.90;999.90;;;19.50;39.00;;;;;;4986813;28;21985;-79
2022/03/27 10:02:45;;;;;;;1999.90;999.90;;;19.60;39.00;;;;;;4997660;28;20027;-78
2022/03/27 10:05:13;;;;;;;1999.90;999.90;;;19.80;38.90;;;;;;5005902;28;20375;-88
2022/03/27 10:07:43;;;;;;;1999.90;999.90;;;19.90;38.80;;;;;;5008635;28;20029;-85
2022/03/27 10:10:11;;;;;;;1999.90;999.90;;;20.00;38.60;;;;;;5008013;28;20497;-84
2022/03/27 10:12:38;;;;;;;1999.90;999.90;;;20.00;38.40;;;;;;5001577;28;20062;-86
2022/03/27 10:15:09;;;;;;;1999.90;999.90;;;20.00;38.50;;;;;;4995544;28;20030;-86
2022/03/27 10:17:36;;;;;;;1999.90;999.90;;;20.00;38.50;;;;;;5005728;28;20372;-83
2022/03/27 10:20:09;;;;;;;1999.90;999.90;;;20.10;38.40;;;;;;4993701;28;20525;-83
2022/03/27 10:22:45;;;;;;;1999.90;999.90;;;20.20;38.40;;;;;;5007867;28;20030;-83
2022/03/27 10:25:12;;;;;;;1999.90;999.90;;;20.40;38.10;;;;;;4992561;28;20099;-82
2022/03/27 10:27:41;;;;;;;1999.90;999.90;;;20.50;37.90;;;;;;5003189;28;20026;-83
2022/03/27 10:30:09;;;;;;;1999.90;999.90;;;20.50;37.90;;;;;;5003674;28;20021;-83
2022/03/27 10:32:35;;;;;;;1999.90;999.90;;;20.60;37.80;;;;;;5001551;28;20037;-85
2022/03/27 10:35:13;;;;;;;1999.90;999.90;;;20.70;37.80;;;;;;4995913;28;20033;-84
2022/03/27 10:38:03;;;;;;;1999.90;999.90;;;20.80;37.60;;;;;;5003217;28;20045;-88
2022/03/27 10:40:40;;;;;;;1999.90;999.90;;;21.00;37.60;;;;;;5016226;28;20034;-89
2022/03/27 10:43:20;;;;;;;1999.90;999.90;;;21.10;37.40;;;;;;4995520;28;20033;-88
2022/03/27 10:46:12;;;;;;;1999.90;999.90;;;21.30;37.40;;;;;;4989445;28;20033;-85
2022/03/27 10:48:42;;;;;;;1999.90;999.90;;;21.40;37.10;;;;;;4981196;28;20391;-81
2022/03/27 10:51:09;;;;;;;1999.90;999.90;;;21.40;37.10;;;;;;4997743;28;20414;-80
2022/03/27 10:53:35;;;;;;;1999.90;999.90;;;21.50;37.10;;;;;;4998925;28;20049;-80
2022/03/27 10:56:03;;;;;;;1999.90;999.90;;;21.60;37.00;;;;;;5004840;28;20352;-80
2022/03/27 10:58:32;;;;;;;1999.90;999.90;;;21.70;37.00;;;;;;5008416;28;20202;-82
2022/03/27 11:01:00;;;;;;;1999.90;999.90;;;21.80;37.50;;;;;;5021049;28;20034;-79
2022/03/27 11:03:46;;;;;;;1999.90;999.90;;;21.90;36.80;;;;;;4998533;28;20502;-79
2022/03/27 11:06:28;;;;;;;1999.90;999.90;;;22.00;36.70;;;;;;4993542;28;20061;-79
2022/03/27 11:08:56;;;;;;;1999.90;999.90;;;22.00;36.70;;;;;;5001088;28;20049;-79
2022/03/27 11:11:40;;;;;;;1999.90;999.90;;;22.10;36.50;;;;;;5000698;28;20054;-89
2022/03/27 11:14:07;;;;;;;1999.90;999.90;;;22.20;36.50;;;;;;4998748;28;20045;-89
2022/03/27 11:16:37;;;;;;;1999.90;999.90;;;22.20;36.50;;;;;;4996771;28;20480;-90
2022/03/27 11:19:04;;;;;;;1999.90;999.90;;;22.30;36.60;;;;;;4988742;28;20053;-93
2022/03/27 11:21:30;;;;;;;1999.90;999.90;;;22.40;36.40;;;;;;4986044;28;20030;-87
2022/03/27 11:24:02;;;;;;;1999.90;999.90;;;22.50;36.30;;;;;;4990452;28;20051;-87
2022/03/27 11:26:31;;;;;;;1999.90;999.90;;;22.60;36.30;;;;;;4990227;28;20818;-92
2022/03/27 11:28:59;;;;;;;1999.90;999.90;;;22.70;36.20;;;;;;4985072;28;20041;-88
2022/03/27 11:31:28;;;;;;;1999.90;999.90;;;22.80;36.20;;;;;;4990152;28;20031;-88
2022/03/27 11:34:09;;;;;;;1999.90;999.90;;;22.90;36.10;;;;;;4985217;28;20406;-88
2022/03/27 11:36:41;;;;;;;;;;;23.00;36.00;;;;;;5006707;28;20101;-89
2022/03/27 11:39:26;;;;;;;1999.90;999.90;;;23.10;35.90;;;;;;5005997;28;19913;-90
2022/03/27 11:41:52;;;;;;;1999.90;999.90;;;23.10;35.80;;;;;;4994962;28;20035;-89
2022/03/27 11:45:06;;;;;;;1999.90;999.90;;;22.90;35.90;;;;;;4978001;28;20490;-88
2022/03/27 11:47:33;;;;;;;1999.90;999.90;;;22.90;36.10;;;;;;4995901;28;20537;-84
2022/03/27 11:49:59;;;;;;;1999.90;999.90;;;23.00;36.10;;;;;;4994816;28;20037;-84
2022/03/27 11:52:25;;;;;;;1999.90;999.90;;;23.10;35.90;;;;;;5006946;28;20048;-85
2022/03/27 11:55:08;;;;;;;1999.90;999.90;;;23.10;35.90;;;;;;4993687;28;20116;-84
2022/03/27 11:57:44;;;;;;;1999.90;999.90;;;23.20;35.80;;;;;;4999563;28;20037;-84
2022/03/27 12:00:11;;;;;;;1999.90;999.90;;;23.30;35.60;;;;;;5005124;28;20032;-85
2022/03/27 12:02:45;;;;;;;1999.90;999.90;;;23.30;35.60;;;;;;5005454;28;20031;-84
2022/03/27 12:05:12;;;;;;;1999.90;999.90;;;23.30;35.60;;;;;;5007450;28;20025;-84
2022/03/27 12:07:52;;;;;;;1999.90;999.90;;;23.30;35.60;;;;;;4994561;28;20023;-81
2022/03/27 12:10:19;;;;;;;1999.90;999.90;;;23.30;35.60;;;;;;4993066;28;20087;-81
2022/03/27 12:13:02;;;;;;;1999.90;999.90;;;23.40;35.50;;;;;;4999132;28;20508;-83